sensor_id;sensor_type;location;lat;lon;timestamp;pressure;altitude;pressure_sealevel;temperature;humidity
69909;BME280;57190;47.918;8.112;2023-04-01T00:00:19;89723.44;;;3.93;83.62
69909;BME280;57190;47.918;8.112;2023-04-01T00:02:45;89717.38;;;3.93;84.06
69909;BME280;57190;47.918;8.112;2023-04-01T00:05:11;89708.91;;;3.91;84.01
69909;BME280;57190;47.918;8.112;2023-04-01T00:07:38;89711.81;;;3.94;84.05
69909;BME280;57190;47.918;8.112;2023-04-01T00:10:08;89718.69;;;3.96;84.42
69909;BME280;57190;47.918;8.112;2023-04-01T00:12:34;89707.91;;;3.97;83.95
69909;BME280;57190;47.918;8.112;2023-04-01T00:15:01;89716.66;;;4.03;84.11
69909;BME280;57190;47.918;8.112;2023-04-01T00:17:27;89719.25;;;3.98;84.41
69909;BME280;57190;47.918;8.112;2023-04-01T00:19:54;89717.94;;;4.00;83.95
69909;BME280;57190;47.918;8.112;2023-04-01T00:22:20;89714.25;;;4.01;83.63
69909;BME280;57190;47.918;8.112;2023-04-01T00:24:45;89721.88;;;3.92;83.74
69909;BME280;57190;47.918;8.112;2023-04-01T00:27:12;89716.31;;;3.89;83.69
69909;BME280;57190;47.918;8.112;2023-04-01T00:29:37;89722.84;;;3.81;83.67
69909;BME280;57190;47.918;8.112;2023-04-01T00:32:03;89723.66;;;3.82;84.18
69909;BME280;57190;47.918;8.112;2023-04-01T00:34:28;89712.03;;;3.83;83.15
69909;BME280;57190;47.918;8.112;2023-04-01T00:36:54;89708.59;;;3.82;83.47
69909;BME280;57190;47.918;8.112;2023-04-01T00:39:20;89704.16;;;3.88;83.13
69909;BME280;57190;47.918;8.112;2023-04-01T00:41:46;89707.28;;;3.85;83.36
69909;BME280;57190;47.918;8.112;2023-04-01T00:44:23;89711.53;;;3.91;83.52
69909;BME280;57190;47.918;8.112;2023-04-01T00:46:50;89714.25;;;4.01;83.67
69909;BME280;57190;47.918;8.112;2023-04-01T00:49:19;89705.50;;;3.96;84.25
69909;BME280;57190;47.918;8.112;2023-04-01T00:51:47;89700.22;;;3.96;84.13
69909;BME280;57190;47.918;8.112;2023-04-01T00:54:15;89685.44;;;3.94;84.49
69909;BME280;57190;47.918;8.112;2023-04-01T00:59:30;89698.47;;;4.06;84.27
69909;BME280;57190;47.918;8.112;2023-04-01T01:01:57;89708.41;;;3.99;84.61
69909;BME280;57190;47.918;8.112;2023-04-01T01:04:27;89693.41;;;4.05;84.59
69909;BME280;57190;47.918;8.112;2023-04-01T01:13:05;89677.09;;;4.08;84.37
69909;BME280;57190;47.918;8.112;2023-04-01T01:15:44;89675.78;;;4.11;84.03
69909;BME280;57190;47.918;8.112;2023-04-01T01:31:31;89666.03;;;4.21;84.30
69909;BME280;57190;47.918;8.112;2023-04-01T01:36:44;89667.34;;;4.19;84.52
69909;BME280;57190;47.918;8.112;2023-04-01T01:39:12;89675.78;;;4.16;84.70
69909;BME280;57190;47.918;8.112;2023-04-01T01:41:41;89666.31;;;4.15;84.91
69909;BME280;57190;47.918;8.112;2023-04-01T01:44:08;89683.69;;;4.11;84.58
69909;BME280;57190;47.918;8.112;2023-04-01T01:46:38;89667.59;;;4.12;84.96
69909;BME280;57190;47.918;8.112;2023-04-01T01:49:07;89676.28;;;4.07;84.84
69909;BME280;57190;47.918;8.112;2023-04-01T01:51:34;89686.03;;;4.07;84.79
69909;BME280;57190;47.918;8.112;2023-04-01T01:53:59;89695.28;;;4.09;84.91
69909;BME280;57190;47.918;8.112;2023-04-01T01:56:27;89686.06;;;4.12;84.47
69909;BME280;57190;47.918;8.112;2023-04-01T01:58:58;89682.66;;;4.17;83.21
69909;BME280;57190;47.918;8.112;2023-04-01T02:01:28;89675.53;;;4.17;84.17
69909;BME280;57190;47.918;8.112;2023-04-01T02:03:56;89686.59;;;4.14;84.58
69909;BME280;57190;47.918;8.112;2023-04-01T02:06:26;89678.97;;;4.18;84.34
69909;BME280;57190;47.918;8.112;2023-04-01T02:09:01;89684.78;;;4.15;84.13
69909;BME280;57190;47.918;8.112;2023-04-01T02:11:35;89681.03;;;4.11;84.70
69909;BME280;57190;47.918;8.112;2023-04-01T02:14:31;89693.97;;;4.12;84.79
69909;BME280;57190;47.918;8.112;2023-04-01T02:16:56;89689.78;;;4.11;84.86
69909;BME280;57190;47.918;8.112;2023-04-01T02:19:27;89686.06;;;4.12;84.98
69909;BME280;57190;47.918;8.112;2023-04-01T02:21:59;89691.38;;;4.17;83.25
69909;BME280;57190;47.918;8.112;2023-04-01T02:24:27;89695.59;;;4.18;83.37
69909;BME280;57190;47.918;8.112;2023-04-01T02:26:54;89687.41;;;4.15;83.27
69909;BME280;57190;47.918;8.112;2023-04-01T02:29:21;89691.31;;;4.07;84.30
69909;BME280;57190;47.918;8.112;2023-04-01T02:31:50;89696.59;;;4.07;84.69
69909;BME280;57190;47.918;8.112;2023-04-01T02:34:16;89693.41;;;4.05;84.50
69909;BME280;57190;47.918;8.112;2023-04-01T02:36:42;89690.50;;;4.01;84.68
69909;BME280;57190;47.918;8.112;2023-04-01T02:39:08;89677.03;;;3.98;84.30
69909;BME280;57190;47.918;8.112;2023-04-01T02:41:44;89684.16;;;3.97;84.47
69909;BME280;57190;47.918;8.112;2023-04-01T02:44:12;89683.59;;;3.90;83.86
69909;BME280;57190;47.918;8.112;2023-04-01T02:46:38;89678.56;;;3.88;84.80
69909;BME280;57190;47.918;8.112;2023-04-01T02:49:04;89669.09;;;3.92;84.73
69909;BME280;57190;47.918;8.112;2023-04-01T02:51:30;89677.50;;;3.84;84.08
69909;BME280;57190;47.918;8.112;2023-04-01T02:53:56;89675.34;;;3.81;84.10
69909;BME280;57190;47.918;8.112;2023-04-01T02:56:21;89670.06;;;3.76;83.75
69909;BME280;57190;47.918;8.112;2023-04-01T02:58:47;89670.09;;;3.81;84.30
69909;BME280;57190;47.918;8.112;2023-04-01T03:01:13;89673.47;;;3.76;84.44
69909;BME280;57190;47.918;8.112;2023-04-01T03:03:38;89680.63;;;3.76;83.41
69909;BME280;57190;47.918;8.112;2023-04-01T03:06:09;89686.66;;;3.76;83.14
69909;BME280;57190;47.918;8.112;2023-04-01T03:08:35;89684.78;;;3.72;83.88
69909;BME280;57190;47.918;8.112;2023-04-01T03:11:01;89668.19;;;3.71;83.99
69909;BME280;57190;47.918;8.112;2023-04-01T03:13:26;89664.44;;;3.62;83.86
69909;BME280;57190;47.918;8.112;2023-04-01T03:15:52;89675.53;;;3.64;83.44
69909;BME280;57190;47.918;8.112;2023-04-01T03:18:18;89669.16;;;3.60;83.93
69909;BME280;57190;47.918;8.112;2023-04-01T03:20:44;89670.25;;;3.64;83.66
69909;BME280;57190;47.918;8.112;2023-04-01T03:23:09;89686.66;;;3.76;84.07
69909;BME280;57190;47.918;8.112;2023-04-01T03:25:35;89675.56;;;3.74;84.08
69909;BME280;57190;47.918;8.112;2023-04-01T03:28:00;89684.25;;;3.70;84.06
69909;BME280;57190;47.918;8.112;2023-04-01T03:30:26;89685.84;;;3.71;84.68
69909;BME280;57190;47.918;8.112;2023-04-01T03:32:52;89684.84;;;3.77;84.27
69909;BME280;57190;47.918;8.112;2023-04-01T03:35:18;89687.72;;;3.75;83.91
69909;BME280;57190;47.918;8.112;2023-04-01T03:37:43;89685.88;;;3.76;84.60
69909;BME280;57190;47.918;8.112;2023-04-01T03:40:10;89697.22;;;3.76;84.43
69909;BME280;57190;47.918;8.112;2023-04-01T03:42:35;89682.69;;;3.69;84.74
69909;BME280;57190;47.918;8.112;2023-04-01T03:45:02;89686.13;;;3.74;84.50
69909;BME280;57190;47.918;8.112;2023-04-01T03:47:29;89681.88;;;3.68;84.56
69909;BME280;57190;47.918;8.112;2023-04-01T03:49:54;89679.50;;;3.67;84.28
69909;BME280;57190;47.918;8.112;2023-04-01T03:52:20;89682.63;;;3.64;84.15
69909;BME280;57190;47.918;8.112;2023-04-01T03:54:46;89684.22;;;3.65;84.64
69909;BME280;57190;47.918;8.112;2023-04-01T03:57:11;89685.53;;;3.62;85.07
69909;BME280;57190;47.918;8.112;2023-04-01T03:59:37;89687.41;;;3.67;84.65
69909;BME280;57190;47.918;8.112;2023-04-01T04:02:03;89682.09;;;3.61;84.37
69909;BME280;57190;47.918;8.112;2023-04-01T04:04:29;89681.59;;;3.65;84.52
69909;BME280;57190;47.918;8.112;2023-04-01T04:06:56;89668.66;;;3.63;85.22
69909;BME280;57190;47.918;8.112;2023-04-01T04:09:22;89681.56;;;3.59;84.88
69909;BME280;57190;47.918;8.112;2023-04-01T04:11:49;89663.13;;;3.65;84.79
69909;BME280;57190;47.918;8.112;2023-04-01T04:14:15;89665.97;;;3.58;84.04
69909;BME280;57190;47.918;8.112;2023-04-01T04:16:40;89678.09;;;3.54;84.19
69909;BME280;57190;47.918;8.112;2023-04-01T04:19:06;89680.47;;;3.55;84.01
69909;BME280;57190;47.918;8.112;2023-04-01T04:21:32;89681.78;;;3.53;84.17
69909;BME280;57190;47.918;8.112;2023-04-01T04:23:59;89667.06;;;3.62;83.44
69909;BME280;57190;47.918;8.112;2023-04-01T04:26:25;89675.19;;;3.55;83.74
69909;BME280;57190;47.918;8.112;2023-04-01T04:28:51;89672.91;;;3.64;84.37
69909;BME280;57190;47.918;8.112;2023-04-01T04:31:22;89666.25;;;3.56;83.55
69909;BME280;57190;47.918;8.112;2023-04-01T04:33:47;89670.47;;;3.57;83.67
69909;BME280;57190;47.918;8.112;2023-04-01T04:36:13;89672.63;;;3.60;84.50
69909;BME280;57190;47.918;8.112;2023-04-01T04:38:39;89672.84;;;3.59;83.93
69909;BME280;57190;47.918;8.112;2023-04-01T04:41:15;89664.09;;;3.53;84.96
69909;BME280;57190;47.918;8.112;2023-04-01T04:43:52;89680.44;;;3.50;84.74
69909;BME280;57190;47.918;8.112;2023-04-01T04:46:18;89672.81;;;3.54;85.35
69909;BME280;57190;47.918;8.112;2023-04-01T04:48:44;89667.56;;;3.59;85.03
69909;BME280;57190;47.918;8.112;2023-04-01T04:51:13;89667.34;;;3.60;85.08
69909;BME280;57190;47.918;8.112;2023-04-01T04:53:39;89661.75;;;3.57;85.29
69909;BME280;57190;47.918;8.112;2023-04-01T04:56:05;89659.44;;;3.60;84.79
69909;BME280;57190;47.918;8.112;2023-04-01T04:58:31;89668.91;;;3.61;85.09
69909;BME280;57190;47.918;8.112;2023-04-01T05:00:56;89674.44;;;3.60;85.41
69909;BME280;57190;47.918;8.112;2023-04-01T05:03:22;89670.22;;;3.59;84.51
69909;BME280;57190;47.918;8.112;2023-04-01T05:05:53;89673.13;;;3.62;84.91
69909;BME280;57190;47.918;8.112;2023-04-01T05:08:19;89678.41;;;3.62;84.74
69909;BME280;57190;47.918;8.112;2023-04-01T05:10:45;89669.72;;;3.62;84.47
69909;BME280;57190;47.918;8.112;2023-04-01T05:13:11;89660.50;;;3.65;84.45
69909;BME280;57190;47.918;8.112;2023-04-01T05:15:37;89659.44;;;3.66;84.89
69909;BME280;57190;47.918;8.112;2023-04-01T05:18:03;89664.72;;;3.66;84.20
69909;BME280;57190;47.918;8.112;2023-04-01T05:20:28;89655.50;;;3.68;84.77
69909;BME280;57190;47.918;8.112;2023-04-01T05:22:58;89655.78;;;3.72;84.62
69909;BME280;57190;47.918;8.112;2023-04-01T05:25:23;89650.03;;;3.80;83.92
69909;BME280;57190;47.918;8.112;2023-04-01T05:27:49;89665.63;;;3.82;84.03
69909;BME280;57190;47.918;8.112;2023-04-01T05:30:15;89643.69;;;3.81;84.12
69909;BME280;57190;47.918;8.112;2023-04-01T05:32:40;89649.53;;;3.83;84.34
69909;BME280;57190;47.918;8.112;2023-04-01T05:35:06;89670.88;;;3.82;84.86
69909;BME280;57190;47.918;8.112;2023-04-01T05:37:34;89676.69;;;3.84;84.85
69909;BME280;57190;47.918;8.112;2023-04-01T05:43:21;89681.53;;;3.97;84.75
69909;BME280;57190;47.918;8.112;2023-04-01T05:45:48;89685.75;;;3.98;84.79
69909;BME280;57190;47.918;8.112;2023-04-01T05:48:13;89680.22;;;4.05;84.43
69909;BME280;57190;47.918;8.112;2023-04-01T05:50:41;89687.63;;;4.03;84.69
69909;BME280;57190;47.918;8.112;2023-04-01T05:53:07;89678.91;;;4.02;84.58
69909;BME280;57190;47.918;8.112;2023-04-01T05:55:35;89686.03;;;4.02;83.78
69909;BME280;57190;47.918;8.112;2023-04-01T05:58:01;89697.63;;;4.01;83.65
69909;BME280;57190;47.918;8.112;2023-04-01T06:00:26;89673.88;;;4.01;83.58
69909;BME280;57190;47.918;8.112;2023-04-01T06:02:52;89686.78;;;3.97;84.00
69909;BME280;57190;47.918;8.112;2023-04-01T06:05:21;89680.44;;;3.93;84.34
69909;BME280;57190;47.918;8.112;2023-04-01T06:07:47;89685.44;;;3.94;85.12
69909;BME280;57190;47.918;8.112;2023-04-01T06:10:19;89681.81;;;4.01;84.69
69909;BME280;57190;47.918;8.112;2023-04-01T06:12:53;89688.94;;;4.05;84.49
69909;BME280;57190;47.918;8.112;2023-04-01T06:15:36;89679.72;;;4.08;84.12
69909;BME280;57190;47.918;8.112;2023-04-01T06:18:49;89687.63;;;4.03;83.98
69909;BME280;57190;47.918;8.112;2023-04-01T06:30:00;89676.53;;;4.06;84.21
69909;BME280;57190;47.918;8.112;2023-04-01T06:38:25;89679.19;;;4.06;83.77
69909;BME280;57190;47.918;8.112;2023-04-01T06:46:47;89659.66;;;4.02;82.71
69909;BME280;57190;47.918;8.112;2023-04-01T06:54:58;89674.94;;;4.00;82.79
69909;BME280;57190;47.918;8.112;2023-04-01T06:57:34;89644.06;;;4.00;83.53
69909;BME280;57190;47.918;8.112;2023-04-01T07:00:28;89667.28;;;3.98;82.76
69909;BME280;57190;47.918;8.112;2023-04-01T07:03:05;89669.38;;;4.01;83.13
69909;BME280;57190;47.918;8.112;2023-04-01T07:05:33;89687.34;;;4.04;82.86
69909;BME280;57190;47.918;8.112;2023-04-01T07:08:02;89668.34;;;4.02;81.56
69909;BME280;57190;47.918;8.112;2023-04-01T07:13:20;89663.88;;;4.03;82.66
69909;BME280;57190;47.918;8.112;2023-04-01T07:15:56;89666.25;;;4.04;82.83
69909;BME280;57190;47.918;8.112;2023-04-01T07:18:32;89659.66;;;4.12;83.19
69909;BME280;57190;47.918;8.112;2023-04-01T07:21:01;89657.59;;;4.19;81.80
69909;BME280;57190;47.918;8.112;2023-04-01T07:23:32;89667.38;;;4.24;82.14
69909;BME280;57190;47.918;8.112;2023-04-01T07:26:18;89667.41;;;4.29;82.21
69909;BME280;57190;47.918;8.112;2023-04-01T07:28:44;89661.91;;;4.36;81.22
69909;BME280;57190;47.918;8.112;2023-04-01T07:33:40;89674.00;;;4.37;82.28
69909;BME280;57190;47.918;8.112;2023-04-01T07:36:45;89674.81;;;4.37;82.46
69909;BME280;57190;47.918;8.112;2023-04-01T07:42:15;89673.50;;;4.40;82.35
69909;BME280;57190;47.918;8.112;2023-04-01T07:44:41;89669.03;;;4.46;82.04
69909;BME280;57190;47.918;8.112;2023-04-01T07:47:45;89670.63;;;4.52;81.45
69909;BME280;57190;47.918;8.112;2023-04-01T07:50:31;89683.06;;;4.51;81.93
69909;BME280;57190;47.918;8.112;2023-04-01T07:56:01;89688.59;;;4.50;81.67
69909;BME280;57190;47.918;8.112;2023-04-01T08:01:45;89682.53;;;4.54;81.96
69909;BME280;57190;47.918;8.112;2023-04-01T08:04:25;89682.78;;;4.53;81.82
69909;BME280;57190;47.918;8.112;2023-04-01T08:07:02;89684.13;;;4.55;82.46
69909;BME280;57190;47.918;8.112;2023-04-01T08:20:56;89692.13;;;4.76;81.95
69909;BME280;57190;47.918;8.112;2023-04-01T08:23:37;89687.06;;;4.75;81.37
69909;BME280;57190;47.918;8.112;2023-04-01T08:26:34;89692.38;;;4.80;80.91
69909;BME280;57190;47.918;8.112;2023-04-01T08:29:08;89679.19;;;4.80;80.91
69909;BME280;57190;47.918;8.112;2023-04-01T08:34:35;89694.47;;;4.72;81.12
69909;BME280;57190;47.918;8.112;2023-04-01T08:37:14;89684.44;;;4.75;81.00
69909;BME280;57190;47.918;8.112;2023-04-01T08:39:51;89682.56;;;4.65;80.94
69909;BME280;57190;47.918;8.112;2023-04-01T08:53:05;89688.41;;;4.77;82.51
69909;BME280;57190;47.918;8.112;2023-04-01T08:55:47;89687.38;;;4.83;81.71
69909;BME280;57190;47.918;8.112;2023-04-01T09:01:15;89690.28;;;4.92;81.32
69909;BME280;57190;47.918;8.112;2023-04-01T09:11:53;89694.28;;;4.95;81.35
69909;BME280;57190;47.918;8.112;2023-04-01T09:17:05;89703.28;;;5.19;82.21
69909;BME280;57190;47.918;8.112;2023-04-01T09:19:57;89700.91;;;5.28;80.16
69909;BME280;57190;47.918;8.112;2023-04-01T09:22:40;89708.06;;;5.43;81.19
69909;BME280;57190;47.918;8.112;2023-04-01T09:30:10;89719.16;;;5.50;80.75
69909;BME280;57190;47.918;8.112;2023-04-01T09:35:50;89716.53;;;5.61;80.07
69909;BME280;57190;47.918;8.112;2023-04-01T09:38:37;89715.47;;;5.51;80.40
69909;BME280;57190;47.918;8.112;2023-04-01T09:44:35;89713.34;;;5.48;79.75
69909;BME280;57190;47.918;8.112;2023-04-01T09:50:30;89725.53;;;5.49;81.69
69909;BME280;57190;47.918;8.112;2023-04-01T09:53:46;89733.44;;;5.55;80.81
69909;BME280;57190;47.918;8.112;2023-04-01T09:56:01;89727.66;;;5.53;81.82
69909;BME280;57190;47.918;8.112;2023-04-01T09:58:44;89731.34;;;5.51;80.79
69909;BME280;57190;47.918;8.112;2023-04-01T10:04:30;89733.72;;;5.79;80.07
69909;BME280;57190;47.918;8.112;2023-04-01T10:09:51;89739.00;;;5.69;80.63
69909;BME280;57190;47.918;8.112;2023-04-01T10:20:40;89743.22;;;5.44;80.67
69909;BME280;57190;47.918;8.112;2023-04-01T10:36:57;89739.78;;;5.64;79.68
69909;BME280;57190;47.918;8.112;2023-04-01T10:47:26;89749.59;;;5.79;78.02
69909;BME280;57190;47.918;8.112;2023-04-01T10:53:00;89741.13;;;5.77;78.52
69909;BME280;57190;47.918;8.112;2023-04-01T10:56:53;89732.16;;;5.83;78.22
69909;BME280;57190;47.918;8.112;2023-04-01T10:59:11;89744.84;;;5.71;77.92
69909;BME280;57190;47.918;8.112;2023-04-01T11:13:50;89762.00;;;5.42;79.07
69909;BME280;57190;47.918;8.112;2023-04-01T11:22:43;89774.97;;;5.54;79.58
69909;BME280;57190;47.918;8.112;2023-04-01T11:25:41;89767.84;;;5.55;78.40
69909;BME280;57190;47.918;8.112;2023-04-01T11:33:34;89778.69;;;5.58;77.74
69909;BME280;57190;47.918;8.112;2023-04-01T11:36:04;89782.13;;;5.48;77.80
69909;BME280;57190;47.918;8.112;2023-04-01T11:44:21;89782.94;;;5.49;78.65
69909;BME280;57190;47.918;8.112;2023-04-01T11:58:25;89798.47;;;5.25;78.46
69909;BME280;57190;47.918;8.112;2023-04-01T12:01:13;89799.25;;;5.25;80.15
69909;BME280;57190;47.918;8.112;2023-04-01T12:06:30;89804.53;;;5.20;79.29
69909;BME280;57190;47.918;8.112;2023-04-01T12:09:21;89795.81;;;5.19;79.63
69909;BME280;57190;47.918;8.112;2023-04-01T12:14:44;89798.75;;;5.28;80.44
69909;BME280;57190;47.918;8.112;2023-04-01T12:17:39;89798.19;;;5.26;79.76
69909;BME280;57190;47.918;8.112;2023-04-01T12:20:30;89800.06;;;5.31;79.44
69909;BME280;57190;47.918;8.112;2023-04-01T12:23:25;89803.78;;;5.35;80.50
69909;BME280;57190;47.918;8.112;2023-04-01T12:28:49;89789.78;;;5.45;79.30
69909;BME280;57190;47.918;8.112;2023-04-01T12:31:42;89788.22;;;5.54;77.92
69909;BME280;57190;47.918;8.112;2023-04-01T13:00:03;89798.53;;;5.81;79.45
69909;BME280;57190;47.918;8.112;2023-04-01T13:16:31;89788.72;;;6.49;77.78
69909;BME280;57190;47.918;8.112;2023-04-01T13:19:07;89782.34;;;6.60;77.68
69909;BME280;57190;47.918;8.112;2023-04-01T13:21:51;89788.13;;;6.73;77.52
69909;BME280;57190;47.918;8.112;2023-04-01T13:27:09;89794.94;;;6.95;76.54
69909;BME280;57190;47.918;8.112;2023-04-01T13:29:56;89791.75;;;6.98;76.11
69909;BME280;57190;47.918;8.112;2023-04-01T13:32:31;89797.84;;;7.03;74.79
69909;BME280;57190;47.918;8.112;2023-04-01T13:35:10;89799.19;;;7.01;75.61
69909;BME280;57190;47.918;8.112;2023-04-01T13:40:40;89791.09;;;7.32;75.03
69909;BME280;57190;47.918;8.112;2023-04-01T13:43:26;89788.38;;;7.42;74.77
69909;BME280;57190;47.918;8.112;2023-04-01T14:05:47;89778.84;;;8.15;73.63
69909;BME280;57190;47.918;8.112;2023-04-01T14:20:26;89771.91;;;9.03;70.73
69909;BME280;57190;47.918;8.112;2023-04-01T14:22:57;89765.59;;;9.18;69.74
69909;BME280;57190;47.918;8.112;2023-04-01T14:28:32;89769.16;;;9.32;68.96
69909;BME280;57190;47.918;8.112;2023-04-01T14:31:27;89764.16;;;9.25;68.31
69909;BME280;57190;47.918;8.112;2023-04-01T14:37:11;89769.16;;;9.32;69.01
69909;BME280;57190;47.918;8.112;2023-04-01T14:48:32;89790.63;;;7.64;70.22
69909;BME280;57190;47.918;8.112;2023-04-01T14:51:18;89808.88;;;7.26;72.03
69909;BME280;57190;47.918;8.112;2023-04-01T14:56:41;89814.69;;;6.52;75.59
69909;BME280;57190;47.918;8.112;2023-04-01T15:01:51;89821.84;;;6.47;75.66
69909;BME280;57190;47.918;8.112;2023-04-01T15:04:35;89818.06;;;6.79;74.85
69909;BME280;57190;47.918;8.112;2023-04-01T15:07:18;89815.13;;;6.90;74.83
69909;BME280;57190;47.918;8.112;2023-04-01T15:12:46;89809.94;;;7.75;73.68
69909;BME280;57190;47.918;8.112;2023-04-01T15:18:03;89807.63;;;8.38;72.96
69909;BME280;57190;47.918;8.112;2023-04-01T15:31:54;89815.66;;;8.27;72.19
69909;BME280;57190;47.918;8.112;2023-04-01T15:34:56;89813.22;;;8.01;71.46
69909;BME280;57190;47.918;8.112;2023-04-01T15:38:01;89823.53;;;8.03;72.11
69909;BME280;57190;47.918;8.112;2023-04-01T15:41:01;89829.72;;;7.93;71.61
69909;BME280;57190;47.918;8.112;2023-04-01T15:43:47;89835.09;;;7.88;70.46
69909;BME280;57190;47.918;8.112;2023-04-01T16:00:57;89826.28;;;7.48;71.92
69909;BME280;57190;47.918;8.112;2023-04-01T16:09:11;89832.97;;;7.35;72.01
69909;BME280;57190;47.918;8.112;2023-04-01T16:11:53;89833.03;;;7.24;72.33
69909;BME280;57190;47.918;8.112;2023-04-01T16:19:36;89836.34;;;6.90;72.33
69909;BME280;57190;47.918;8.112;2023-04-01T16:22:14;89835.03;;;6.72;73.50
69909;BME280;57190;47.918;8.112;2023-04-01T16:24:56;89850.97;;;6.57;73.59
69909;BME280;57190;47.918;8.112;2023-04-01T16:27:36;89852.56;;;6.48;74.32
69909;BME280;57190;47.918;8.112;2023-04-01T16:30:38;89845.16;;;6.24;75.09
69909;BME280;57190;47.918;8.112;2023-04-01T16:33:20;89844.66;;;6.11;75.60
69909;BME280;57190;47.918;8.112;2023-04-01T16:36:13;89838.25;;;5.97;75.35
69909;BME280;57190;47.918;8.112;2023-04-01T16:41:17;89831.69;;;6.00;76.35
69909;BME280;57190;47.918;8.112;2023-04-01T16:44:27;89854.19;;;6.07;76.46
69909;BME280;57190;47.918;8.112;2023-04-01T16:46:46;89848.59;;;6.09;77.51
69909;BME280;57190;47.918;8.112;2023-04-01T16:54:44;89842.28;;;6.15;77.30
69909;BME280;57190;47.918;8.112;2023-04-01T16:57:19;89845.19;;;6.19;77.85
69909;BME280;57190;47.918;8.112;2023-04-01T17:02:33;89855.22;;;6.22;77.84
69909;BME280;57190;47.918;8.112;2023-04-01T17:05:13;89858.16;;;6.20;78.45
69909;BME280;57190;47.918;8.112;2023-04-01T17:14:01;89872.44;;;6.09;76.58
69909;BME280;57190;47.918;8.112;2023-04-01T17:19:38;89876.16;;;6.03;78.02
69909;BME280;57190;47.918;8.112;2023-04-01T17:22:37;89867.91;;;5.94;77.31
69909;BME280;57190;47.918;8.112;2023-04-01T17:36:11;89865.78;;;5.86;78.48
69909;BME280;57190;47.918;8.112;2023-04-01T17:49:52;89882.41;;;5.76;78.94
69909;BME280;57190;47.918;8.112;2023-04-01T18:00:46;89877.59;;;5.52;78.81
69909;BME280;57190;47.918;8.112;2023-04-01T18:22:19;89904.66;;;5.01;79.87
69909;BME280;57190;47.918;8.112;2023-04-01T18:27:24;89907.81;;;4.98;80.74
69909;BME280;57190;47.918;8.112;2023-04-01T18:30:02;89899.59;;;4.94;80.00
69909;BME280;57190;47.918;8.112;2023-04-01T18:38:12;89918.50;;;4.70;80.13
69909;BME280;57190;47.918;8.112;2023-04-01T18:41:07;89922.72;;;4.71;80.39
69909;BME280;57190;47.918;8.112;2023-04-01T18:46:55;89925.09;;;4.68;81.28
69909;BME280;57190;47.918;8.112;2023-04-01T18:52:37;89934.13;;;4.77;80.66
69909;BME280;57190;47.918;8.112;2023-04-01T18:57:52;89929.88;;;4.76;80.55
69909;BME280;57190;47.918;8.112;2023-04-01T19:00:38;89943.84;;;4.71;80.65
69909;BME280;57190;47.918;8.112;2023-04-01T19:05:42;89942.44;;;4.59;81.28
69909;BME280;57190;47.918;8.112;2023-04-01T19:08:26;89945.34;;;4.57;81.16
69909;BME280;57190;47.918;8.112;2023-04-01T19:21:37;89935.97;;;4.39;81.21
69909;BME280;57190;47.918;8.112;2023-04-01T19:26:40;89944.50;;;4.19;81.22
69909;BME280;57190;47.918;8.112;2023-04-01T19:32:14;89949.22;;;4.17;80.92
69909;BME280;57190;47.918;8.112;2023-04-01T19:37:51;89957.00;;;4.01;81.78
69909;BME280;57190;47.918;8.112;2023-04-01T19:40:48;89952.78;;;4.00;81.00
69909;BME280;57190;47.918;8.112;2023-04-01T19:46:48;89951.63;;;3.91;81.52
69909;BME280;57190;47.918;8.112;2023-04-01T19:54:37;89951.84;;;3.84;80.85
69909;BME280;57190;47.918;8.112;2023-04-01T19:59:47;89960.97;;;3.71;80.84
69909;BME280;57190;47.918;8.112;2023-04-01T20:02:24;89959.84;;;3.67;81.20
69909;BME280;57190;47.918;8.112;2023-04-01T20:04:54;89968.56;;;3.68;81.45
69909;BME280;57190;47.918;8.112;2023-04-01T20:07:29;89959.06;;;3.67;80.53
69909;BME280;57190;47.918;8.112;2023-04-01T20:10:09;89961.94;;;3.65;80.73
69909;BME280;57190;47.918;8.112;2023-04-01T20:15:42;89980.03;;;3.56;80.59
69909;BME280;57190;47.918;8.112;2023-04-01T20:20:55;89980.81;;;3.57;80.63
69909;BME280;57190;47.918;8.112;2023-04-01T20:23:33;89983.78;;;3.60;80.80
69909;BME280;57190;47.918;8.112;2023-04-01T20:26:13;89983.47;;;3.57;80.68
69909;BME280;57190;47.918;8.112;2023-04-01T20:31:35;89973.56;;;3.42;81.58
69909;BME280;57190;47.918;8.112;2023-04-01T20:36:31;89990.66;;;3.39;81.25
69909;BME280;57190;47.918;8.112;2023-04-01T20:44:31;89988.25;;;3.38;81.81
69909;BME280;57190;47.918;8.112;2023-04-01T20:50:31;89988.44;;;3.31;82.12
69909;BME280;57190;47.918;8.112;2023-04-01T20:56:09;89988.56;;;3.41;82.25
69909;BME280;57190;47.918;8.112;2023-04-01T21:01:59;89996.16;;;3.60;81.30
69909;BME280;57190;47.918;8.112;2023-04-01T21:09:41;90004.25;;;3.75;81.42
69909;BME280;57190;47.918;8.112;2023-04-01T21:18:13;90011.94;;;3.77;81.41
69909;BME280;57190;47.918;8.112;2023-04-01T21:20:59;90006.41;;;3.78;81.49
69909;BME280;57190;47.918;8.112;2023-04-01T21:24:06;90009.03;;;3.78;81.46
69909;BME280;57190;47.918;8.112;2023-04-01T21:32:19;90012.13;;;3.98;80.66
69909;BME280;57190;47.918;8.112;2023-04-01T21:37:45;90007.34;;;3.94;80.14
69909;BME280;57190;47.918;8.112;2023-04-01T21:43:17;90011.88;;;3.99;80.55
69909;BME280;57190;47.918;8.112;2023-04-01T21:55:33;90009.63;;;3.86;80.76
69909;BME280;57190;47.918;8.112;2023-04-01T22:01:25;90010.56;;;3.74;80.78
69909;BME280;57190;47.918;8.112;2023-04-01T22:04:17;90010.03;;;3.72;81.56
69909;BME280;57190;47.918;8.112;2023-04-01T22:06:53;90011.19;;;3.82;81.52
69909;BME280;57190;47.918;8.112;2023-04-01T22:12:07;90017.25;;;3.82;80.97
69909;BME280;57190;47.918;8.112;2023-04-01T22:14:57;90024.88;;;3.78;81.39
69909;BME280;57190;47.918;8.112;2023-04-01T22:17:35;90022.72;;;3.75;81.42
69909;BME280;57190;47.918;8.112;2023-04-01T22:25:59;90038.97;;;3.89;81.01
69909;BME280;57190;47.918;8.112;2023-04-01T22:28:34;90040.50;;;3.85;80.89
69909;BME280;57190;47.918;8.112;2023-04-01T22:31:05;90040.00;;;3.88;81.13
69909;BME280;57190;47.918;8.112;2023-04-01T22:36:46;90043.75;;;3.92;81.26
69909;BME280;57190;47.918;8.112;2023-04-01T22:39:39;90045.88;;;3.96;81.36
69909;BME280;57190;47.918;8.112;2023-04-01T22:50:35;90051.16;;;3.96;81.55
69909;BME280;57190;47.918;8.112;2023-04-01T22:53:18;90055.09;;;3.93;82.25
69909;BME280;57190;47.918;8.112;2023-04-01T22:55:49;90057.25;;;3.96;82.03